createdAt,value
2023-04-27T00:02:58.440Z,4.22
2023-04-27T00:06:00.783Z,5.28
2023-04-27T00:09:03.864Z,4.45
2023-04-27T00:12:07.149Z,3.97
2023-04-27T00:15:09.471Z,4.63
2023-04-27T00:18:11.489Z,4.80
2023-04-27T00:21:13.490Z,3.93
2023-04-27T00:24:15.620Z,5.18
2023-04-27T00:27:17.615Z,5.38
2023-04-27T00:30:19.896Z,6.80
2023-04-27T00:33:22.019Z,6.60
2023-04-27T00:36:24.038Z,4.68
2023-04-27T00:39:26.245Z,6.35
2023-04-27T00:42:28.340Z,4.43
2023-04-27T00:45:30.432Z,4.68
2023-04-27T00:48:32.537Z,5.00
2023-04-27T00:51:34.579Z,5.43
2023-04-27T00:54:36.747Z,4.38
2023-04-27T00:57:39.119Z,4.35
2023-04-27T01:00:41.656Z,5.00
2023-04-27T01:03:44.174Z,4.60
2023-04-27T01:06:46.363Z,3.45
2023-04-27T01:09:48.390Z,6.03
2023-04-27T01:12:51.130Z,6.68
2023-04-27T01:15:53.308Z,6.55
2023-04-27T01:18:55.715Z,5.65
2023-04-27T01:21:59.194Z,5.13
2023-04-27T01:25:01.243Z,5.65
2023-04-27T01:28:03.304Z,4.80
2023-04-27T01:31:05.446Z,4.63
2023-04-27T01:34:07.574Z,4.53
2023-04-27T01:37:09.681Z,4.07
2023-04-27T01:40:11.963Z,4.35
2023-04-27T01:43:14.044Z,5.40
2023-04-27T01:46:16.347Z,7.18
2023-04-27T01:49:18.913Z,12.43
2023-04-27T01:52:20.944Z,10.53
2023-04-27T01:55:23.001Z,9.82
2023-04-27T01:58:25.235Z,7.03
2023-04-27T02:01:28.306Z,7.47
2023-04-27T02:04:30.481Z,6.22
2023-04-27T02:07:33.306Z,5.45
2023-04-27T02:10:35.941Z,5.25
2023-04-27T02:13:38.027Z,4.60
2023-04-27T02:16:40.253Z,4.63
2023-04-27T02:19:42.585Z,4.40
2023-04-27T02:22:45.088Z,3.27
2023-04-27T02:25:47.148Z,4.50
2023-04-27T02:28:50.288Z,3.83
2023-04-27T02:31:52.853Z,5.07
2023-04-27T02:34:56.880Z,3.88
2023-04-27T02:37:59.071Z,4.30
2023-04-27T02:41:01.164Z,4.20
2023-04-27T02:44:03.414Z,5.13
2023-04-27T02:47:06.268Z,4.25
2023-04-27T02:50:08.586Z,3.90
2023-04-27T02:53:11.516Z,3.87
2023-04-27T02:56:13.554Z,3.30
2023-04-27T02:59:15.905Z,4.57
2023-04-27T03:02:18.376Z,4.53
2023-04-27T03:05:20.574Z,4.38
2023-04-27T03:08:22.646Z,4.03
2023-04-27T03:11:24.673Z,4.55
2023-04-27T03:14:26.829Z,5.10
2023-04-27T03:17:28.941Z,3.78
2023-04-27T03:20:32.085Z,5.40
2023-04-27T03:23:34.104Z,4.67
2023-04-27T03:26:36.108Z,5.07
2023-04-27T03:29:39.270Z,4.00
2023-04-27T03:32:41.727Z,4.43
2023-04-27T03:35:43.938Z,4.10
2023-04-27T03:38:49.565Z,3.90
2023-04-27T03:41:51.956Z,4.40
2023-04-27T03:44:54.138Z,4.55
2023-04-27T03:47:56.198Z,4.00
2023-04-27T03:50:58.309Z,4.88
2023-04-27T03:54:00.385Z,4.57
2023-04-27T03:57:04.546Z,4.28
2023-04-27T04:00:11.753Z,5.18
2023-04-27T04:03:17.010Z,5.60
2023-04-27T04:06:19.208Z,5.10
2023-04-27T04:09:23.715Z,4.15
2023-04-27T04:12:26.285Z,5.25
2023-04-27T04:15:28.328Z,4.88
2023-04-27T04:18:30.563Z,5.25
2023-04-27T04:21:33.103Z,5.55
2023-04-27T04:24:36.274Z,5.73
2023-04-27T04:27:38.424Z,5.53
2023-04-27T04:30:40.679Z,4.25
2023-04-27T04:33:42.701Z,5.03
2023-04-27T04:36:44.818Z,5.78
2023-04-27T04:39:46.889Z,4.75
2023-04-27T04:42:48.864Z,5.05
2023-04-27T04:45:51.024Z,5.53
2023-04-27T04:48:54.869Z,4.43
2023-04-27T04:51:57.150Z,4.22
2023-04-27T04:54:59.215Z,4.17
2023-04-27T04:58:02.146Z,5.03
2023-04-27T05:01:04.353Z,5.15
2023-04-27T05:04:06.722Z,5.23
2023-04-27T05:07:08.930Z,5.72
2023-04-27T05:10:11.025Z,5.18
2023-04-27T05:13:13.054Z,5.20
2023-04-27T05:16:15.569Z,4.88
2023-04-27T05:19:18.630Z,5.10
2023-04-27T05:22:20.716Z,4.85
2023-04-27T05:25:22.723Z,4.53
2023-04-27T05:28:24.857Z,4.00
2023-04-27T05:31:26.900Z,4.05
2023-04-27T05:34:28.995Z,5.00
2023-04-27T05:37:31.392Z,4.47
2023-04-27T05:40:33.500Z,4.13
2023-04-27T05:43:35.682Z,3.92
2023-04-27T05:46:38.682Z,4.30
2023-04-27T05:49:41.380Z,10.30
2023-04-27T05:52:43.462Z,3.95
2023-04-27T05:55:45.679Z,5.50
2023-04-27T05:58:47.754Z,5.15
2023-04-27T06:01:50.328Z,6.90
2023-04-27T06:04:53.957Z,4.32
2023-04-27T06:07:56.233Z,4.10
2023-04-27T06:10:58.315Z,4.15
2023-04-27T06:14:01.395Z,4.35
2023-04-27T06:17:04.487Z,3.20
2023-04-27T06:20:09.856Z,4.50
2023-04-27T06:23:11.948Z,7.13
2023-04-27T06:26:13.941Z,3.92
2023-04-27T06:29:16.115Z,3.58
2023-04-27T06:32:18.416Z,3.40
2023-04-27T06:35:21.566Z,4.70
2023-04-27T06:38:23.738Z,3.58
2023-04-27T06:41:26.543Z,3.80
2023-04-27T06:44:28.667Z,2.85
2023-04-27T06:47:31.013Z,3.50
2023-04-27T06:50:33.243Z,2.90
2023-04-27T06:53:35.932Z,2.70
2023-04-27T06:56:38.266Z,2.35
2023-04-27T06:59:40.493Z,2.90
2023-04-27T07:02:42.657Z,2.50
2023-04-27T07:05:44.859Z,2.63
2023-04-27T07:08:47.016Z,2.67
2023-04-27T07:11:49.194Z,2.90
2023-04-27T07:14:51.335Z,3.37
2023-04-27T07:17:56.464Z,2.53
2023-04-27T07:20:58.658Z,3.95
2023-04-27T07:24:00.895Z,2.88
2023-04-27T07:27:04.192Z,3.27
2023-04-27T07:30:09.486Z,3.13
2023-04-27T07:33:11.700Z,2.72
2023-04-27T07:36:13.878Z,2.53
2023-04-27T07:39:16.251Z,2.88
2023-04-27T07:42:20.397Z,3.63
2023-04-27T07:45:23.399Z,2.90
2023-04-27T07:48:25.618Z,3.03
2023-04-27T07:51:30.823Z,2.72
2023-04-27T07:54:32.871Z,3.20
2023-04-27T07:57:34.925Z,2.57
2023-04-27T08:00:37.517Z,2.83
2023-04-27T08:03:40.016Z,3.15
2023-04-27T08:06:42.371Z,2.63
2023-04-27T08:09:45.173Z,3.20
2023-04-27T08:12:47.389Z,2.23
2023-04-27T08:15:49.550Z,3.33
2023-04-27T08:18:51.665Z,2.70
2023-04-27T08:21:53.832Z,3.15
2023-04-27T08:24:56.099Z,2.97
2023-04-27T08:27:58.133Z,3.07
2023-04-27T08:31:00.553Z,2.70
2023-04-27T08:34:02.766Z,3.17
2023-04-27T08:37:09.653Z,3.17
2023-04-27T08:40:12.675Z,3.10
2023-04-27T08:43:14.925Z,2.50
2023-04-27T08:46:24.038Z,2.80
2023-04-27T08:49:26.398Z,2.80
2023-04-27T08:52:28.830Z,3.17
2023-04-27T08:55:30.914Z,2.63
2023-04-27T08:58:36.868Z,2.50
2023-04-27T09:01:43.702Z,2.40
2023-04-27T09:04:46.202Z,4.13
2023-04-27T09:08:02.454Z,2.72
2023-04-27T09:11:04.706Z,3.25
2023-04-27T09:14:17.143Z,2.67
2023-04-27T09:17:24.417Z,2.60
2023-04-27T09:20:27.543Z,2.45
2023-04-27T09:23:30.643Z,1.67
2023-04-27T09:26:32.772Z,2.28
2023-04-27T09:29:38.288Z,3.80
2023-04-27T09:32:40.610Z,2.53
2023-04-27T09:35:45.832Z,2.95
2023-04-27T09:38:49.721Z,2.53
2023-04-27T09:41:52.435Z,2.40
2023-04-27T09:44:55.162Z,2.33
2023-04-27T09:47:58.148Z,1.92
2023-04-27T09:51:01.001Z,2.60
2023-04-27T09:54:03.974Z,2.40
2023-04-27T09:57:16.109Z,2.50
2023-04-27T10:00:24.724Z,3.37
2023-04-27T10:03:32.998Z,2.63
2023-04-27T10:06:35.159Z,2.53
2023-04-27T10:09:38.207Z,2.05
2023-04-27T10:12:40.378Z,2.38
2023-04-27T10:15:42.427Z,2.03
2023-04-27T10:18:51.630Z,2.53
2023-04-27T10:21:56.931Z,3.28
2023-04-27T10:24:59.228Z,3.65
2023-04-27T10:28:02.716Z,3.10
2023-04-27T10:31:10.225Z,2.67
2023-04-27T10:34:18.519Z,2.88
2023-04-27T10:37:25.912Z,3.17
2023-04-27T10:40:32.805Z,2.35
2023-04-27T10:43:35.739Z,2.25
2023-04-27T10:46:49.440Z,2.70
2023-04-27T10:49:54.701Z,2.35
2023-04-27T10:53:01.055Z,2.97
2023-04-27T10:56:04.143Z,2.30
2023-04-27T10:59:06.334Z,2.90
2023-04-27T11:02:08.500Z,2.63
2023-04-27T11:05:21.170Z,2.50
2023-04-27T11:08:23.284Z,2.30
2023-04-27T11:11:26.552Z,2.72
2023-04-27T11:14:29.755Z,2.72
2023-04-27T11:17:32.051Z,2.73
2023-04-27T11:20:34.528Z,3.30
2023-04-27T11:23:38.230Z,2.83
2023-04-27T11:26:42.530Z,4.00
2023-04-27T11:29:45.787Z,2.97
2023-04-27T11:32:49.693Z,2.83
2023-04-27T11:35:52.416Z,3.47
2023-04-27T11:38:58.086Z,3.78
2023-04-27T11:42:18.105Z,3.28
2023-04-27T11:45:25.135Z,3.22
2023-04-27T11:48:27.746Z,2.90
2023-04-27T11:51:30.509Z,3.00
2023-04-27T11:54:33.284Z,2.78
2023-04-27T11:57:39.300Z,3.38
2023-04-27T12:00:41.541Z,2.70
2023-04-27T12:03:43.819Z,3.87
2023-04-27T12:06:46.085Z,2.70
2023-04-27T12:09:48.376Z,3.10
2023-04-27T12:12:50.753Z,2.47
2023-04-27T12:15:52.865Z,3.20
2023-04-27T12:18:55.078Z,3.07
2023-04-27T12:21:57.602Z,3.47
2023-04-27T12:24:59.705Z,2.50
2023-04-27T12:28:01.768Z,2.83
2023-04-27T12:31:04.682Z,2.63
2023-04-27T12:34:06.915Z,2.70
2023-04-27T12:37:09.028Z,3.10
2023-04-27T12:40:11.330Z,3.47
2023-04-27T12:43:13.539Z,3.25
2023-04-27T12:46:15.876Z,2.78
2023-04-27T12:49:18.181Z,4.10
2023-04-27T12:52:20.304Z,2.70
2023-04-27T12:55:32.001Z,2.88
2023-04-27T12:58:35.577Z,3.15
2023-04-27T13:01:37.769Z,3.03
2023-04-27T13:04:40.146Z,3.33
2023-04-27T13:07:42.600Z,3.10
2023-04-27T13:10:44.685Z,2.47
2023-04-27T13:13:48.075Z,3.00
2023-04-27T13:16:50.202Z,3.13
2023-04-27T13:19:52.889Z,2.93
2023-04-27T13:22:54.855Z,3.15
2023-04-27T13:25:57.125Z,3.13
2023-04-27T13:28:59.221Z,2.88
2023-04-27T13:32:01.290Z,2.38
2023-04-27T13:35:03.997Z,2.30
2023-04-27T13:38:06.037Z,2.45
2023-04-27T13:41:08.380Z,2.78
2023-04-27T13:44:10.953Z,3.08
2023-04-27T13:47:12.980Z,2.72
2023-04-27T13:50:15.212Z,2.40
2023-04-27T13:53:17.608Z,2.92
2023-04-27T13:56:19.616Z,2.70
2023-04-27T13:59:22.007Z,2.53
2023-04-27T14:02:24.730Z,3.00
2023-04-27T14:05:27.297Z,2.67
2023-04-27T14:08:29.473Z,2.90
2023-04-27T14:11:37.163Z,2.20
2023-04-27T14:14:44.357Z,1.85
2023-04-27T14:17:46.498Z,2.35
2023-04-27T14:20:48.524Z,2.37
2023-04-27T14:23:50.573Z,3.28
2023-04-27T14:26:52.652Z,3.55
2023-04-27T14:29:54.704Z,3.05
2023-04-27T14:32:56.847Z,2.28
2023-04-27T14:35:58.855Z,2.20
2023-04-27T14:39:01.269Z,2.30
2023-04-27T14:42:04.296Z,2.20
2023-04-27T14:45:06.701Z,1.92
2023-04-27T14:48:08.719Z,2.55
2023-04-27T14:51:11.233Z,2.23
2023-04-27T14:54:13.458Z,2.15
2023-04-27T14:57:15.527Z,2.75
2023-04-27T15:00:17.797Z,2.80
2023-04-27T15:03:20.504Z,2.60
2023-04-27T15:06:24.214Z,2.30
2023-04-27T15:09:26.256Z,2.53
2023-04-27T15:12:28.287Z,2.20
2023-04-27T15:15:30.422Z,2.88
2023-04-27T15:18:32.776Z,2.67
2023-04-27T15:21:34.828Z,2.60
2023-04-27T15:24:37.050Z,2.53
2023-04-27T15:27:39.401Z,4.20
2023-04-27T15:30:41.797Z,3.05
2023-04-27T15:33:43.822Z,2.50
2023-04-27T15:36:45.865Z,2.40
2023-04-27T15:39:47.910Z,2.20
2023-04-27T15:42:50.699Z,2.30
2023-04-27T15:45:53.463Z,2.28
2023-04-27T15:48:55.507Z,2.20
2023-04-27T15:51:57.512Z,2.97
2023-04-27T15:55:00.802Z,2.88
2023-04-27T15:58:03.482Z,2.72
2023-04-27T16:01:05.838Z,2.28
2023-04-27T16:04:08.137Z,1.95
2023-04-27T16:07:10.392Z,2.47
2023-04-27T16:10:13.184Z,2.70
2023-04-27T16:13:15.262Z,2.65
2023-04-27T16:16:17.278Z,2.63
2023-04-27T16:19:19.505Z,1.90
2023-04-27T16:22:22.273Z,2.57
2023-04-27T16:25:24.249Z,2.55
2023-04-27T16:28:26.238Z,3.15
2023-04-27T16:31:28.296Z,2.80
2023-04-27T16:34:30.381Z,2.78
2023-04-27T16:37:32.906Z,2.37
2023-04-27T16:40:34.926Z,2.70
2023-04-27T16:43:36.980Z,2.80
2023-04-27T16:46:39.088Z,2.60
2023-04-27T16:49:42.453Z,2.70
2023-04-27T16:52:44.509Z,2.50
2023-04-27T16:55:46.548Z,4.07
2023-04-27T16:58:48.607Z,3.67
2023-04-27T17:01:51.526Z,4.43
2023-04-27T17:04:56.895Z,3.85
2023-04-27T17:07:58.915Z,3.97
2023-04-27T17:11:01.027Z,3.85
2023-04-27T17:14:03.055Z,4.38
2023-04-27T17:17:06.311Z,3.15
2023-04-27T17:20:09.659Z,2.85
2023-04-27T17:23:12.452Z,2.87
2023-04-27T17:26:16.068Z,4.35
2023-04-27T17:29:18.120Z,3.50
2023-04-27T17:32:20.130Z,3.50
2023-04-27T17:35:22.223Z,2.78
2023-04-27T17:38:24.267Z,3.20
2023-04-27T17:41:26.371Z,4.38
2023-04-27T17:44:28.573Z,5.70
2023-04-27T17:47:30.948Z,5.63
2023-04-27T17:50:34.735Z,6.30
2023-04-27T17:53:36.893Z,5.60
2023-04-27T17:56:39.044Z,6.18
2023-04-27T17:59:41.246Z,5.28
2023-04-27T18:02:43.374Z,4.32
2023-04-27T18:05:46.895Z,6.25
2023-04-27T18:08:49.229Z,9.80
2023-04-27T18:11:51.241Z,9.23
2023-04-27T18:14:53.271Z,9.35
2023-04-27T18:17:55.492Z,8.80
2023-04-27T18:20:57.525Z,8.77
2023-04-27T18:23:59.602Z,8.77
2023-04-27T18:27:01.641Z,6.65
2023-04-27T18:30:04.572Z,7.75
2023-04-27T18:33:06.639Z,9.13
2023-04-27T18:36:08.703Z,14.55
2023-04-27T18:39:10.675Z,22.87
2023-04-27T18:42:12.637Z,21.38
2023-04-27T18:45:14.674Z,21.27
2023-04-27T18:48:16.777Z,27.65
2023-04-27T18:51:18.892Z,68.63
2023-04-27T18:54:21.249Z,50.10
2023-04-27T18:57:23.478Z,37.08
2023-04-27T19:00:25.702Z,29.03
2023-04-27T19:03:28.020Z,25.33
2023-04-27T19:06:31.502Z,33.95
2023-04-27T19:09:33.610Z,41.75
2023-04-27T19:12:35.997Z,35.17
2023-04-27T19:15:38.171Z,33.73
2023-04-27T19:18:40.716Z,30.33
2023-04-27T19:21:43.632Z,36.50
2023-04-27T19:24:45.743Z,26.43
2023-04-27T19:27:47.799Z,23.15
2023-04-27T19:30:50.351Z,31.65
2023-04-27T19:33:55.229Z,30.20
2023-04-27T19:36:57.653Z,26.47
2023-04-27T19:40:00.209Z,21.27
2023-04-27T19:43:02.703Z,11.38
2023-04-27T19:46:04.869Z,12.90
2023-04-27T19:49:06.923Z,12.27
2023-04-27T19:52:08.926Z,13.93
2023-04-27T19:55:11.110Z,11.60
2023-04-27T19:58:13.148Z,11.83
2023-04-27T20:01:15.428Z,13.20
2023-04-27T20:04:18.675Z,12.77
2023-04-27T20:07:21.188Z,12.60
2023-04-27T20:10:23.199Z,9.77
2023-04-27T20:13:25.257Z,8.63
2023-04-27T20:16:27.407Z,7.63
2023-04-27T20:19:30.169Z,7.50
2023-04-27T20:22:32.165Z,6.95
2023-04-27T20:25:34.208Z,6.65
2023-04-27T20:28:36.274Z,7.25
2023-04-27T20:31:38.545Z,8.00
2023-04-27T20:34:40.724Z,8.10
2023-04-27T20:37:43.692Z,8.23
2023-04-27T20:40:45.886Z,8.32
2023-04-27T20:43:47.890Z,8.70
2023-04-27T20:46:49.875Z,9.73
2023-04-27T20:49:53.514Z,11.02
2023-04-27T20:52:55.709Z,11.98
2023-04-27T20:55:57.981Z,10.80
2023-04-27T20:59:00.084Z,9.82
2023-04-27T21:02:02.378Z,9.52
2023-04-27T21:05:04.652Z,9.40
2023-04-27T21:08:07.084Z,11.20
2023-04-27T21:11:09.266Z,12.10
2023-04-27T21:14:11.275Z,11.52
2023-04-27T21:17:15.303Z,11.63
2023-04-27T21:20:17.543Z,11.80
2023-04-27T21:23:19.936Z,11.52
2023-04-27T21:26:22.019Z,13.55
2023-04-27T21:29:24.073Z,15.20
2023-04-27T21:32:26.059Z,9.95
2023-04-27T21:35:28.154Z,9.80
2023-04-27T21:38:30.179Z,9.65
2023-04-27T21:41:34.143Z,8.00
2023-04-27T21:44:36.230Z,7.45
2023-04-27T21:47:38.604Z,6.93
2023-04-27T21:50:40.751Z,6.40
2023-04-27T21:53:42.750Z,7.00
2023-04-27T21:56:44.818Z,6.68
2023-04-27T21:59:46.856Z,7.35
2023-04-27T22:02:49.606Z,7.15
2023-04-27T22:05:52.826Z,6.68
2023-04-27T22:08:54.943Z,6.75
2023-04-27T22:11:56.988Z,6.97
2023-04-27T22:14:59.010Z,6.70
2023-04-27T22:18:01.192Z,6.93
2023-04-27T22:21:03.287Z,6.65
2023-04-27T22:24:05.437Z,6.30
2023-04-27T22:27:07.502Z,6.28
2023-04-27T22:30:09.727Z,5.95
2023-04-27T22:33:11.948Z,6.43
2023-04-27T22:36:14.050Z,6.38
2023-04-27T22:39:16.133Z,7.55
2023-04-27T22:42:18.155Z,7.85
2023-04-27T22:45:20.142Z,8.13
2023-04-27T22:48:22.242Z,8.63
2023-04-27T22:51:27.620Z,9.02
2023-04-27T22:54:29.768Z,7.40
2023-04-27T22:57:31.967Z,8.57
2023-04-27T23:00:33.956Z,8.20
2023-04-27T23:03:36.257Z,7.63
2023-04-27T23:06:38.371Z,7.38
2023-04-27T23:09:40.371Z,6.80
2023-04-27T23:12:42.370Z,7.07
2023-04-27T23:15:44.429Z,5.35
2023-04-27T23:18:46.970Z,7.03
2023-04-27T23:21:48.984Z,7.10
2023-04-27T23:24:51.866Z,8.83
2023-04-27T23:27:53.878Z,11.20
2023-04-27T23:30:55.984Z,12.35
2023-04-27T23:33:58.314Z,13.07
2023-04-27T23:37:00.318Z,12.73
2023-04-27T23:40:02.360Z,12.32
2023-04-27T23:43:04.354Z,13.05
2023-04-27T23:46:06.434Z,12.93
2023-04-27T23:49:08.500Z,12.70
2023-04-27T23:52:11.527Z,12.63
2023-04-27T23:55:13.611Z,12.33
2023-04-27T23:58:15.601Z,12.88
